Main page
METAR-TAF:

METAR-TAF

Airports :

Piacenza Air Base

Piacenza, Italy

latitude: 44-55N, longitude: 009-44E, elevation: 134 m

Current weather observation

The report was made 9 hours and 43 minutes ago, at 17:55 UTC
Wind 4 kt from the East/Southeast
Temperature 27°C
Humidity 54%
Pressure 1013 hPa
Visibility 10 km or more
no clouds below 1500 m and no cumulonimbus

METAR: LIMS 161755Z 12004KT CAVOK 27/17 Q1013 RMK SKC VIS MIN 9999 WIND THR30 11005KT BLU

Time: 05:38 (03:38 UTC)


TAF: missing

Weather observations and forecasts of more than 4000 airports (METAR and TAF reports).

The available stations are represented by yellow and red dots on the map.

Hover mouse over dot to see the name of the station.

Then click to see weather observations and forecasts.

To change the map : click on the green buttons with a black cross to zoom in, on the green button with a dash to zoom out, or on the green arrows for adjacent maps.


METAR-TAF: